createdAt,value
2022-07-29T00:01:56.075Z,2.10
2022-07-29T00:04:25.861Z,2.10
2022-07-29T00:06:55.521Z,2.90
2022-07-29T00:09:27.779Z,1.90
2022-07-29T00:11:57.921Z,2.40
2022-07-29T00:14:27.704Z,2.22
2022-07-29T00:16:57.372Z,2.20
2022-07-29T00:19:27.077Z,2.20
2022-07-29T00:21:56.691Z,2.20
2022-07-29T00:24:29.033Z,2.50
2022-07-29T00:26:58.777Z,1.80
2022-07-29T00:29:34.104Z,2.40
2022-07-29T00:32:04.439Z,2.03
2022-07-29T00:34:46.865Z,2.30
2022-07-29T00:37:16.512Z,2.35
2022-07-29T00:39:48.773Z,1.80
2022-07-29T00:42:18.435Z,2.22
2022-07-29T00:44:48.231Z,1.90
2022-07-29T00:47:17.921Z,2.20
2022-07-29T00:49:47.845Z,2.70
2022-07-29T00:52:17.655Z,2.10
2022-07-29T00:54:49.912Z,2.05
2022-07-29T00:57:19.568Z,2.25
2022-07-29T00:59:49.262Z,2.87
2022-07-29T01:02:19.063Z,2.45
2022-07-29T01:04:49.029Z,2.63
2022-07-29T01:07:19.023Z,2.30
2022-07-29T01:09:51.586Z,2.50
2022-07-29T01:12:22.906Z,2.22
2022-07-29T01:14:53.356Z,2.40
2022-07-29T01:17:26.467Z,2.03
2022-07-29T01:20:02.312Z,2.10
2022-07-29T01:22:40.817Z,2.13
2022-07-29T01:25:23.815Z,2.22
2022-07-29T01:28:12.868Z,2.28
2022-07-29T01:30:46.172Z,2.50
2022-07-29T01:33:40.655Z,2.67
2022-07-29T01:36:14.557Z,2.80
2022-07-29T01:38:47.055Z,2.30
2022-07-29T01:41:19.304Z,2.40
2022-07-29T01:43:55.063Z,2.30
2022-07-29T01:46:31.326Z,2.23
2022-07-29T01:49:06.267Z,2.45
2022-07-29T01:51:40.013Z,2.22
2022-07-29T01:54:13.181Z,2.53
2022-07-29T01:56:43.222Z,2.80
2022-07-29T01:59:13.696Z,2.97
2022-07-29T02:01:47.198Z,2.85
2022-07-29T02:04:29.891Z,2.67
2022-07-29T02:07:04.653Z,2.75
2022-07-29T02:09:36.200Z,2.50
2022-07-29T02:12:07.897Z,2.58
2022-07-29T02:14:42.558Z,2.55
2022-07-29T02:17:16.348Z,2.55
2022-07-29T02:19:47.167Z,2.63
2022-07-29T02:22:17.519Z,2.70
2022-07-29T02:24:48.219Z,2.60
2022-07-29T02:27:18.157Z,2.30
2022-07-29T02:29:49.628Z,2.23
2022-07-29T02:32:22.866Z,2.50
2022-07-29T02:34:53.122Z,2.50
2022-07-29T02:37:22.916Z,3.10
2022-07-29T02:39:52.855Z,3.17
2022-07-29T02:42:22.653Z,2.67
2022-07-29T02:44:52.537Z,2.85
2022-07-29T02:47:27.425Z,3.17
2022-07-29T02:50:01.102Z,3.45
2022-07-29T02:52:33.385Z,2.80
2022-07-29T02:55:05.921Z,2.50
2022-07-29T02:57:54.763Z,3.10
2022-07-29T03:00:25.650Z,2.60
2022-07-29T03:02:59.977Z,3.00
2022-07-29T03:05:30.216Z,3.10
2022-07-29T03:08:01.703Z,2.50
2022-07-29T03:10:31.582Z,2.88
2022-07-29T03:13:02.053Z,2.80
2022-07-29T03:15:32.380Z,3.05
2022-07-29T03:18:04.813Z,2.95
2022-07-29T03:20:34.686Z,3.03
2022-07-29T03:23:04.315Z,3.10
2022-07-29T03:25:34.567Z,2.60
2022-07-29T03:28:04.273Z,2.60
2022-07-29T03:30:33.950Z,3.30
2022-07-29T03:33:13.537Z,3.45
2022-07-29T03:35:43.573Z,3.50
2022-07-29T03:38:13.371Z,3.50
2022-07-29T03:40:49.138Z,3.20
2022-07-29T03:43:19.679Z,3.40
2022-07-29T03:45:51.863Z,3.15
2022-07-29T03:48:26.125Z,3.40
2022-07-29T03:50:56.144Z,2.70
2022-07-29T03:53:26.110Z,2.87
2022-07-29T03:55:58.775Z,2.70
2022-07-29T03:58:30.212Z,2.50
2022-07-29T04:01:00.729Z,3.03
2022-07-29T04:03:33.663Z,2.60
2022-07-29T04:06:06.653Z,3.10
2022-07-29T04:08:36.604Z,2.50
2022-07-29T04:11:07.923Z,2.90
2022-07-29T04:13:37.883Z,2.90
2022-07-29T04:16:08.312Z,2.47
2022-07-29T04:18:40.558Z,2.80
2022-07-29T04:21:10.305Z,2.35
2022-07-29T04:23:47.967Z,2.40
2022-07-29T04:26:24.443Z,2.30
2022-07-29T04:28:54.089Z,2.53
2022-07-29T04:31:25.864Z,2.07
2022-07-29T04:33:58.590Z,2.15
2022-07-29T04:36:29.476Z,2.40
2022-07-29T04:38:59.559Z,2.00
2022-07-29T04:41:32.986Z,2.40
2022-07-29T04:44:07.214Z,2.00
2022-07-29T04:46:37.200Z,2.40
2022-07-29T04:49:09.584Z,2.00
2022-07-29T04:51:39.281Z,2.30
2022-07-29T04:54:09.104Z,2.03
2022-07-29T04:56:39.011Z,2.10
2022-07-29T04:59:08.941Z,2.05
2022-07-29T05:01:38.676Z,2.20
2022-07-29T05:04:11.087Z,1.98
2022-07-29T05:06:40.792Z,2.47
2022-07-29T05:09:10.681Z,2.45
2022-07-29T05:11:40.290Z,2.20
2022-07-29T05:14:09.992Z,2.50
2022-07-29T05:16:40.451Z,2.10
2022-07-29T05:19:14.638Z,2.10
2022-07-29T05:21:44.857Z,2.80
2022-07-29T05:24:14.895Z,2.55
2022-07-29T05:26:45.983Z,2.80
2022-07-29T05:29:42.675Z,2.00
2022-07-29T05:32:05.345Z,2.70
2022-07-29T05:34:37.576Z,2.20
2022-07-29T05:37:19.588Z,2.00
2022-07-29T05:39:56.803Z,2.13
2022-07-29T05:42:27.293Z,2.58
2022-07-29T05:44:57.290Z,2.20
2022-07-29T05:47:28.216Z,2.88
2022-07-29T05:50:00.646Z,2.60
2022-07-29T05:52:30.339Z,2.80
2022-07-29T05:55:02.167Z,2.70
2022-07-29T05:57:32.013Z,3.00
2022-07-29T06:00:01.791Z,2.70
2022-07-29T06:02:31.605Z,2.60
2022-07-29T06:05:04.127Z,2.90
2022-07-29T06:07:34.435Z,2.58
2022-07-29T06:10:06.974Z,2.50
2022-07-29T06:12:36.676Z,2.70
2022-07-29T06:15:06.939Z,2.70
2022-07-29T06:17:36.628Z,2.53
2022-07-29T06:20:10.836Z,2.85
2022-07-29T06:22:40.505Z,3.25
2022-07-29T06:25:10.957Z,2.60
2022-07-29T06:27:40.621Z,3.00
2022-07-29T06:30:11.395Z,3.08
2022-07-29T06:32:43.167Z,2.70
2022-07-29T06:38:07.305Z,2.30
2022-07-29T06:41:04.854Z,3.00
2022-07-29T06:43:50.481Z,2.50
2022-07-29T06:46:22.572Z,3.03
2022-07-29T06:48:53.062Z,2.67
2022-07-29T06:51:26.157Z,2.78
2022-07-29T06:53:59.397Z,2.72
2022-07-29T06:56:32.529Z,2.67
2022-07-29T06:59:09.890Z,2.70
2022-07-29T07:01:39.745Z,3.50
2022-07-29T07:04:09.762Z,3.42
2022-07-29T07:06:42.350Z,3.10
2022-07-29T07:09:12.168Z,3.20
2022-07-29T07:11:41.952Z,3.42
2022-07-29T07:14:11.608Z,2.50
2022-07-29T07:16:41.421Z,3.10
2022-07-29T07:19:11.114Z,3.65
2022-07-29T07:21:46.565Z,2.65
2022-07-29T07:24:16.789Z,3.63
2022-07-29T07:26:46.833Z,3.60
2022-07-29T07:29:16.854Z,2.95
2022-07-29T07:31:46.639Z,3.20
2022-07-29T07:34:16.788Z,3.00
2022-07-29T07:37:00.494Z,3.08
2022-07-29T07:39:30.233Z,2.92
2022-07-29T07:41:59.941Z,3.03
2022-07-29T07:44:29.928Z,3.50
2022-07-29T07:47:03.988Z,3.20
2022-07-29T07:49:42.061Z,3.30
2022-07-29T07:52:17.395Z,3.20
2022-07-29T07:54:47.627Z,3.17
2022-07-29T07:57:19.411Z,3.30
2022-07-29T07:59:49.247Z,3.28
2022-07-29T08:02:18.973Z,3.10
2022-07-29T08:04:48.728Z,3.70
2022-07-29T08:07:21.144Z,2.70
2022-07-29T08:09:50.851Z,3.22
2022-07-29T08:12:20.567Z,3.13
2022-07-29T08:14:50.263Z,3.35
2022-07-29T08:17:19.937Z,3.00
2022-07-29T08:19:50.768Z,3.30
2022-07-29T08:22:23.091Z,3.15
2022-07-29T08:24:57.120Z,3.17
2022-07-29T08:27:42.941Z,3.00
2022-07-29T08:30:13.856Z,3.03
2022-07-29T08:32:53.629Z,3.40
2022-07-29T08:35:23.979Z,3.42
2022-07-29T08:37:57.833Z,3.28
2022-07-29T08:40:32.235Z,3.80
2022-07-29T08:43:02.589Z,3.53
2022-07-29T08:45:33.458Z,3.33
2022-07-29T08:48:03.360Z,3.25
2022-07-29T08:50:33.018Z,3.90
2022-07-29T08:53:05.608Z,3.88
2022-07-29T08:55:35.604Z,3.88
2022-07-29T08:58:05.827Z,4.30
2022-07-29T09:00:36.687Z,4.50
2022-07-29T09:03:08.697Z,4.10
2022-07-29T09:05:42.007Z,4.20
2022-07-29T09:08:16.652Z,4.30
2022-07-29T09:10:46.724Z,4.20
2022-07-29T09:13:16.472Z,4.30
2022-07-29T09:15:46.202Z,4.40
2022-07-29T09:18:20.333Z,4.50
2022-07-29T09:21:13.265Z,4.40
2022-07-29T09:23:45.517Z,4.30
2022-07-29T09:26:15.169Z,4.30
2022-07-29T09:28:45.970Z,3.78
2022-07-29T09:31:15.669Z,4.43
2022-07-29T09:33:45.452Z,4.10
2022-07-29T09:36:15.197Z,4.20
2022-07-29T09:39:01.135Z,4.30
2022-07-29T09:41:31.124Z,4.47
2022-07-29T09:44:02.657Z,4.20
2022-07-29T09:46:32.433Z,3.72
2022-07-29T09:49:12.382Z,4.82
2022-07-29T09:51:42.813Z,4.60
2022-07-29T09:54:35.395Z,4.63
2022-07-29T09:57:05.065Z,4.40
2022-07-29T09:59:35.273Z,5.40
2022-07-29T10:02:04.980Z,5.35
2022-07-29T10:04:42.757Z,5.20
2022-07-29T10:07:12.975Z,5.13
2022-07-29T10:09:54.290Z,4.93
2022-07-29T10:12:23.931Z,4.82
2022-07-29T10:14:54.352Z,5.47
2022-07-29T10:17:24.776Z,5.00
2022-07-29T10:19:54.619Z,5.05
2022-07-29T10:22:51.481Z,5.18
2022-07-29T10:25:18.617Z,4.83
2022-07-29T10:27:49.348Z,4.40
2022-07-29T10:30:19.819Z,4.90
2022-07-29T10:33:05.934Z,4.60
2022-07-29T10:35:58.262Z,4.38
2022-07-29T10:38:50.066Z,4.60
2022-07-29T10:41:52.545Z,4.60
2022-07-29T10:44:26.049Z,4.60
2022-07-29T10:46:55.954Z,4.90
2022-07-29T10:49:30.403Z,4.53
2022-07-29T10:52:06.123Z,4.40
2022-07-29T10:54:48.394Z,3.90
2022-07-29T10:57:20.836Z,4.50
2022-07-29T10:59:53.992Z,4.43
2022-07-29T11:02:46.566Z,3.75
2022-07-29T11:05:18.756Z,3.83
2022-07-29T11:11:37.676Z,4.78
2022-07-29T11:14:10.307Z,4.90
2022-07-29T11:17:06.784Z,5.40
2022-07-29T11:19:40.314Z,4.80
2022-07-29T11:22:16.592Z,5.40
2022-07-29T11:24:50.141Z,4.90
2022-07-29T11:27:23.054Z,5.00
2022-07-29T11:29:58.520Z,5.90
2022-07-29T11:32:40.839Z,5.00
2022-07-29T11:35:37.099Z,5.65
2022-07-29T11:38:31.937Z,5.00
2022-07-29T11:41:31.867Z,4.50
2022-07-29T11:44:03.778Z,4.93
2022-07-29T11:46:50.376Z,4.10
2022-07-29T11:49:31.567Z,4.88
2022-07-29T11:52:04.953Z,5.03
2022-07-29T11:54:57.395Z,4.63
2022-07-29T11:57:36.152Z,3.90
2022-07-29T12:03:00.556Z,3.78
2022-07-29T12:05:52.935Z,4.10
2022-07-29T12:08:23.657Z,4.07
2022-07-29T12:10:54.385Z,3.90
2022-07-29T12:13:37.541Z,4.22
2022-07-29T12:16:08.595Z,4.38
2022-07-29T12:18:38.430Z,3.92
2022-07-29T12:21:12.398Z,3.95
2022-07-29T12:23:42.288Z,4.90
2022-07-29T12:26:21.802Z,4.25
2022-07-29T12:28:55.613Z,4.70
2022-07-29T12:31:43.192Z,4.20
2022-07-29T12:34:15.326Z,4.20
2022-07-29T12:36:47.819Z,4.70
2022-07-29T12:39:19.127Z,4.00
2022-07-29T12:41:49.420Z,3.95
2022-07-29T12:44:19.169Z,4.28
2022-07-29T12:46:49.837Z,4.13
2022-07-29T12:49:25.265Z,4.15
2022-07-29T12:51:58.070Z,3.97
2022-07-29T12:54:27.974Z,4.00
2022-07-29T12:57:05.163Z,4.60
2022-07-29T12:59:34.796Z,3.72
2022-07-29T13:02:08.156Z,3.80
2022-07-29T13:04:38.412Z,4.40
2022-07-29T13:07:12.792Z,4.00
2022-07-29T13:09:46.684Z,3.92
2022-07-29T13:12:17.678Z,4.13
2022-07-29T13:14:49.027Z,4.00
2022-07-29T13:17:20.083Z,4.10
2022-07-29T13:19:52.388Z,3.75
2022-07-29T13:22:26.182Z,4.50
2022-07-29T13:24:57.652Z,4.53
2022-07-29T13:27:28.804Z,3.80
2022-07-29T13:30:00.518Z,4.15
2022-07-29T13:32:32.192Z,4.70
2022-07-29T13:35:05.145Z,4.50
2022-07-29T13:37:39.463Z,5.40
2022-07-29T13:40:11.524Z,4.35
2022-07-29T13:42:41.807Z,4.50
2022-07-29T13:45:13.016Z,5.20
2022-07-29T13:47:47.645Z,4.90
2022-07-29T13:50:19.798Z,4.40
2022-07-29T13:52:52.328Z,4.43
2022-07-29T13:55:22.119Z,4.75
2022-07-29T13:57:51.809Z,4.93
2022-07-29T14:00:21.731Z,3.80
2022-07-29T14:02:51.367Z,4.65
2022-07-29T14:05:21.067Z,4.40
2022-07-29T14:07:53.335Z,3.80
2022-07-29T14:10:23.242Z,3.58
2022-07-29T14:12:52.831Z,3.80
2022-07-29T14:15:22.536Z,4.07
2022-07-29T14:17:52.200Z,4.20
2022-07-29T14:20:22.162Z,4.47
2022-07-29T14:22:54.559Z,4.05
2022-07-29T14:25:24.513Z,3.58
2022-07-29T14:27:55.210Z,4.55
2022-07-29T14:30:28.251Z,4.28
2022-07-29T14:32:57.836Z,3.80
2022-07-29T14:35:27.907Z,4.50
2022-07-29T14:38:00.178Z,4.90
2022-07-29T14:40:30.130Z,4.72
2022-07-29T14:42:59.804Z,4.50
2022-07-29T14:45:29.627Z,4.50
2022-07-29T14:48:00.901Z,4.82
2022-07-29T14:50:31.617Z,4.30
2022-07-29T14:53:04.825Z,4.20
2022-07-29T14:55:34.592Z,4.85
2022-07-29T14:58:10.983Z,4.40
2022-07-29T15:00:43.204Z,4.50
2022-07-29T15:03:13.085Z,4.20
2022-07-29T15:05:54.042Z,4.32
2022-07-29T15:08:28.906Z,4.43
2022-07-29T15:10:58.557Z,3.88
2022-07-29T15:13:28.196Z,4.10
2022-07-29T15:16:00.164Z,4.80
2022-07-29T15:18:30.043Z,3.70
2022-07-29T15:21:01.431Z,4.50
2022-07-29T15:23:33.765Z,3.95
2022-07-29T15:26:03.417Z,4.47
2022-07-29T15:28:33.215Z,4.20
2022-07-29T15:31:03.069Z,4.40
2022-07-29T15:33:32.705Z,4.03
2022-07-29T15:36:02.378Z,4.22
2022-07-29T15:38:34.752Z,4.50
2022-07-29T15:41:04.464Z,4.90
2022-07-29T15:43:35.741Z,4.60
2022-07-29T15:46:17.947Z,5.50
2022-07-29T15:48:47.691Z,4.65
2022-07-29T15:51:18.345Z,5.07
2022-07-29T15:53:53.292Z,4.63
2022-07-29T15:56:23.492Z,4.60
2022-07-29T15:58:53.446Z,4.85
2022-07-29T16:01:23.210Z,4.18
2022-07-29T16:03:53.095Z,4.60
2022-07-29T16:06:22.793Z,4.72
2022-07-29T16:08:55.839Z,4.60
2022-07-29T16:11:25.599Z,5.30
2022-07-29T16:13:55.421Z,5.85
2022-07-29T16:16:25.383Z,5.43
2022-07-29T16:18:55.433Z,5.80
2022-07-29T16:21:25.466Z,4.80
2022-07-29T16:23:58.264Z,5.40
2022-07-29T16:26:27.949Z,4.25
2022-07-29T16:28:57.866Z,4.90
2022-07-29T16:31:27.563Z,4.73
2022-07-29T16:33:57.550Z,5.15
2022-07-29T16:36:27.250Z,5.22
2022-07-29T16:38:59.759Z,4.60
2022-07-29T16:41:29.720Z,6.23
2022-07-29T16:43:59.375Z,4.75
2022-07-29T16:46:29.095Z,5.05
2022-07-29T16:48:59.709Z,4.40
2022-07-29T16:51:30.442Z,5.95
2022-07-29T16:54:02.788Z,5.38
2022-07-29T16:56:35.935Z,5.32
2022-07-29T16:59:05.927Z,5.60
2022-07-29T17:01:35.615Z,4.80
2022-07-29T17:04:12.020Z,5.32
2022-07-29T17:06:42.686Z,5.80
2022-07-29T17:09:16.829Z,5.03
2022-07-29T17:11:54.842Z,5.20
2022-07-29T17:14:26.195Z,4.68
2022-07-29T17:17:01.265Z,4.30
2022-07-29T17:19:32.142Z,4.78
2022-07-29T17:22:11.739Z,4.30
2022-07-29T17:24:48.104Z,4.70
2022-07-29T17:27:18.407Z,4.13
2022-07-29T17:29:48.957Z,4.43
2022-07-29T17:32:18.666Z,3.95
2022-07-29T17:34:48.367Z,4.00
2022-07-29T17:37:18.029Z,4.50
2022-07-29T17:39:50.868Z,3.60
2022-07-29T17:42:20.717Z,4.00
2022-07-29T17:44:50.431Z,4.00
2022-07-29T17:47:20.115Z,4.57
2022-07-29T17:49:49.740Z,3.80
2022-07-29T17:52:19.448Z,3.80
2022-07-29T17:54:51.756Z,3.50
2022-07-29T17:57:21.441Z,3.97
2022-07-29T17:59:51.621Z,3.77
2022-07-29T18:02:21.260Z,3.28
2022-07-29T18:04:50.943Z,3.50
2022-07-29T18:07:20.631Z,3.38
2022-07-29T18:09:55.381Z,3.20
2022-07-29T18:12:27.125Z,3.40
2022-07-29T18:14:56.789Z,3.72
2022-07-29T18:17:48.401Z,3.53
2022-07-29T18:20:16.886Z,3.35
2022-07-29T18:22:46.621Z,3.60
2022-07-29T18:25:18.905Z,3.50
2022-07-29T18:27:48.565Z,4.10
2022-07-29T18:30:19.248Z,3.63
2022-07-29T18:33:18.212Z,4.25
2022-07-29T18:35:39.211Z,4.25
2022-07-29T18:38:08.888Z,4.10
2022-07-29T18:40:42.059Z,4.22
2022-07-29T18:43:11.964Z,3.75
2022-07-29T18:45:42.599Z,3.77
2022-07-29T18:48:13.132Z,3.88
2022-07-29T18:50:43.397Z,3.80
2022-07-29T18:53:13.101Z,4.00
2022-07-29T18:55:45.398Z,4.30
2022-07-29T18:58:15.117Z,4.65
2022-07-29T19:00:44.777Z,4.18
2022-07-29T19:03:14.733Z,3.78
2022-07-29T19:05:44.601Z,3.80
2022-07-29T19:08:14.468Z,4.15
2022-07-29T19:10:46.751Z,4.20
2022-07-29T19:13:16.415Z,4.20
2022-07-29T19:15:46.430Z,4.40
2022-07-29T19:18:16.108Z,3.97
2022-07-29T19:20:45.750Z,4.22
2022-07-29T19:23:15.475Z,3.90
2022-07-29T19:25:53.833Z,4.38
2022-07-29T19:28:23.816Z,4.40
2022-07-29T19:30:53.593Z,3.88
2022-07-29T19:33:23.412Z,4.50
2022-07-29T19:35:55.118Z,4.50
2022-07-29T19:38:25.120Z,4.50
2022-07-29T19:40:57.396Z,4.32
2022-07-29T19:43:51.499Z,4.90
2022-07-29T19:46:17.059Z,4.03
2022-07-29T19:48:46.859Z,4.97
2022-07-29T19:51:16.699Z,4.47
2022-07-29T19:53:46.376Z,4.70
2022-07-29T19:56:18.648Z,4.95
2022-07-29T19:58:49.063Z,4.70
2022-07-29T20:01:19.384Z,4.10
2022-07-29T20:03:49.251Z,4.40
2022-07-29T20:06:18.962Z,4.90
2022-07-29T20:08:48.991Z,4.88
2022-07-29T20:11:21.258Z,4.50
2022-07-29T20:13:50.912Z,4.80
2022-07-29T20:16:21.948Z,5.33
2022-07-29T20:18:51.735Z,4.50
2022-07-29T20:21:21.410Z,4.60
2022-07-29T20:23:51.250Z,4.63
2022-07-29T20:26:23.995Z,4.93
2022-07-29T20:28:53.657Z,4.73
2022-07-29T20:31:23.331Z,5.00
2022-07-29T20:33:53.463Z,4.63
2022-07-29T20:36:23.076Z,5.20
2022-07-29T20:38:53.005Z,5.50
2022-07-29T20:41:25.404Z,4.82
2022-07-29T20:43:55.119Z,5.40
2022-07-29T20:46:25.116Z,4.90
2022-07-29T20:48:54.927Z,5.25
2022-07-29T20:51:24.847Z,5.20
2022-07-29T20:53:54.567Z,4.57
2022-07-29T20:56:26.782Z,5.03
2022-07-29T20:58:56.670Z,4.80
2022-07-29T21:01:26.402Z,4.50
2022-07-29T21:03:56.191Z,5.07
2022-07-29T21:06:25.843Z,5.20
2022-07-29T21:08:55.785Z,4.80
2022-07-29T21:11:44.726Z,5.10
2022-07-29T21:14:27.435Z,4.75
2022-07-29T21:16:57.470Z,5.40
2022-07-29T21:19:27.304Z,4.90
2022-07-29T21:21:56.964Z,5.28
2022-07-29T21:24:26.660Z,5.20
2022-07-29T21:27:21.066Z,5.30
2022-07-29T21:29:49.144Z,5.55
2022-07-29T21:32:29.793Z,5.47
2022-07-29T21:35:00.037Z,5.47
2022-07-29T21:37:29.701Z,5.70
2022-07-29T21:39:59.406Z,5.40
2022-07-29T21:42:31.785Z,5.75
2022-07-29T21:45:01.440Z,5.60
2022-07-29T21:47:31.068Z,5.15
2022-07-29T21:50:00.845Z,5.27
2022-07-29T21:52:30.593Z,5.60
2022-07-29T21:55:00.253Z,5.70
2022-07-29T21:57:32.518Z,5.50
2022-07-29T22:00:03.233Z,5.13
2022-07-29T22:02:42.212Z,5.43
2022-07-29T22:05:12.750Z,5.10
2022-07-29T22:07:54.598Z,5.90
2022-07-29T22:10:29.824Z,6.03
2022-07-29T22:13:03.599Z,5.53
2022-07-29T22:15:33.635Z,4.65
2022-07-29T22:18:03.451Z,5.22
2022-07-29T22:20:33.092Z,5.57
2022-07-29T22:23:03.031Z,5.30
2022-07-29T22:25:32.820Z,5.20
2022-07-29T22:28:05.155Z,5.85
2022-07-29T22:30:34.865Z,6.00
2022-07-29T22:33:04.495Z,5.40
2022-07-29T22:35:34.325Z,5.10
2022-07-29T22:38:03.965Z,5.78
2022-07-29T22:40:33.758Z,5.50
2022-07-29T22:43:06.576Z,5.63
2022-07-29T22:45:36.256Z,5.43
2022-07-29T22:48:06.124Z,5.70
2022-07-29T22:50:35.760Z,5.82
2022-07-29T22:53:05.403Z,6.10
2022-07-29T22:55:35.076Z,5.60
2022-07-29T22:58:07.335Z,5.60
2022-07-29T23:00:37.634Z,5.53
2022-07-29T23:03:07.359Z,6.20
2022-07-29T23:05:37.117Z,5.47
2022-07-29T23:08:07.521Z,5.70
2022-07-29T23:10:37.268Z,5.60
2022-07-29T23:13:09.478Z,5.22
2022-07-29T23:15:39.282Z,6.03
2022-07-29T23:18:09.094Z,5.90
2022-07-29T23:20:38.882Z,6.22
2022-07-29T23:23:08.603Z,6.03
2022-07-29T23:25:38.390Z,5.30
2022-07-29T23:28:13.190Z,6.40
2022-07-29T23:30:43.398Z,6.30
2022-07-29T23:33:13.222Z,5.80
2022-07-29T23:35:42.862Z,5.80
2022-07-29T23:38:12.530Z,6.20
2022-07-29T23:40:42.204Z,6.50
2022-07-29T23:43:14.416Z,5.88
2022-07-29T23:45:45.227Z,5.90
2022-07-29T23:48:18.492Z,5.80
2022-07-29T23:50:48.198Z,5.60
2022-07-29T23:53:17.891Z,6.10
2022-07-29T23:55:47.588Z,6.07
2022-07-29T23:58:19.868Z,6.60
